3MA4 weather

Public forecast

Using degrees Fahrenheit for public forecast. Weather courtesy of forecast.io.

Closest aviation weather report (METAR) to North Chatham Heliport

Closest report is Chatham Municipal Airport, 1.9 nm (3.5 km) SSW. Retrieved 2020/08/14 06:52 UTC (9 minutes ago):

KCQX 140652Z AUTO 00000KT 10SM CLR 22/20 A3005 RMK AO2 SLP176 T02170200 PWINO

Closest aviation forecast (TAF) to North Chatham Heliport

Closest forecast is Barnstable Municipal Boardman Polando Field, 14.4 nm (26.6 km) W. Retrieved 2020/08/14 06:42 UTC (19 minutes ago):

TAF KHYA 140540Z 1406/1506 00000KT P6SM BKN100 FM141000 03005KT P6SM SCT200 FM150500 03009KT P6SM BKN100